createdAt,value
2019-03-05T00:00:38.756Z,5.60
2019-03-05T00:03:08.807Z,5.50
2019-03-05T00:05:39.079Z,5.50
2019-03-05T00:08:09.119Z,5.60
2019-03-05T00:10:39.359Z,5.60
2019-03-05T00:13:09.455Z,5.60
2019-03-05T00:15:47.538Z,5.50
2019-03-05T00:18:17.872Z,5.50
2019-03-05T00:20:48.133Z,5.40
2019-03-05T00:23:42.850Z,5.30
2019-03-05T00:26:12.870Z,5.30
2019-03-05T00:29:04.627Z,5.10
2019-03-05T00:31:36.954Z,5.10
2019-03-05T00:34:48.112Z,5.00
2019-03-05T00:37:38.598Z,5.00
2019-03-05T00:40:37.482Z,4.90
2019-03-05T00:43:20.658Z,4.90
2019-03-05T00:46:20.629Z,4.90
2019-03-05T00:49:30.176Z,5.00
2019-03-05T00:52:44.555Z,4.90
2019-03-05T00:55:58.633Z,4.90
2019-03-05T00:58:36.253Z,4.90
2019-03-05T01:01:36.569Z,4.90
2019-03-05T01:04:23.276Z,4.80
2019-03-05T01:06:54.110Z,4.90
2019-03-05T01:09:25.076Z,4.90
2019-03-05T01:11:55.395Z,4.90
2019-03-05T01:14:26.094Z,4.90
2019-03-05T01:16:56.130Z,5.10
2019-03-05T01:19:26.345Z,5.20
2019-03-05T01:21:56.697Z,5.30
2019-03-05T01:24:27.111Z,5.50
2019-03-05T01:26:57.720Z,5.50
2019-03-05T01:29:27.783Z,5.60
2019-03-05T01:32:13.920Z,5.60
2019-03-05T01:35:00.341Z,5.60
2019-03-05T01:37:30.503Z,5.60
2019-03-05T01:40:06.959Z,5.60
2019-03-05T01:42:37.230Z,5.50
2019-03-05T01:45:09.092Z,5.40
2019-03-05T01:47:39.300Z,5.40
2019-03-05T01:50:14.144Z,5.40
2019-03-05T01:52:44.852Z,5.40
2019-03-05T01:55:15.324Z,5.50
2019-03-05T01:57:46.226Z,5.60
2019-03-05T02:00:19.666Z,5.60
2019-03-05T02:02:49.904Z,5.70
2019-03-05T02:05:20.517Z,5.70
2019-03-05T02:07:51.322Z,5.80
2019-03-05T02:10:22.899Z,5.80
2019-03-05T02:12:52.967Z,5.70
2019-03-05T02:15:22.947Z,5.60
2019-03-05T02:18:02.000Z,5.50
2019-03-05T02:20:32.122Z,5.50
2019-03-05T02:23:11.909Z,5.40
2019-03-05T02:25:55.762Z,5.30
2019-03-05T02:29:18.597Z,5.40
2019-03-05T02:32:48.187Z,5.40
2019-03-05T02:35:56.834Z,5.50
2019-03-05T02:38:36.520Z,5.50
2019-03-05T02:41:41.096Z,5.50
2019-03-05T02:44:27.306Z,5.50
2019-03-05T02:47:23.739Z,5.50
2019-03-05T02:50:25.873Z,5.50
2019-03-05T02:53:36.674Z,5.40
2019-03-05T02:56:18.363Z,5.20
2019-03-05T02:58:46.929Z,5.10
2019-03-05T03:01:35.708Z,4.90
2019-03-05T03:04:10.223Z,4.80
2019-03-05T03:06:40.233Z,4.70
2019-03-05T03:10:10.697Z,4.60
2019-03-05T03:12:42.360Z,4.40
2019-03-05T03:15:14.842Z,4.20
2019-03-05T03:17:45.532Z,4.00
2019-03-05T03:20:20.601Z,3.80
2019-03-05T03:22:53.054Z,3.70
2019-03-05T03:25:23.977Z,3.70
2019-03-05T03:27:54.081Z,3.50
2019-03-05T03:30:28.871Z,3.50
2019-03-05T03:32:59.704Z,3.40
2019-03-05T03:35:30.904Z,3.40
2019-03-05T03:38:01.394Z,3.40
2019-03-05T03:40:32.054Z,3.40
2019-03-05T03:43:02.577Z,3.40
2019-03-05T03:45:33.842Z,3.30
2019-03-05T03:48:03.936Z,3.30
2019-03-05T03:50:34.244Z,3.30
2019-03-05T03:53:04.694Z,3.30
2019-03-05T03:55:37.277Z,3.30
2019-03-05T03:58:08.182Z,3.30
2019-03-05T04:00:38.498Z,3.30
2019-03-05T04:03:23.073Z,3.20
2019-03-05T04:05:50.558Z,3.20
2019-03-05T04:08:20.509Z,3.20
2019-03-05T04:10:55.811Z,3.10
2019-03-05T04:13:27.221Z,3.10
2019-03-05T04:15:58.198Z,3.10
2019-03-05T04:18:29.455Z,3.10
2019-03-05T04:20:59.998Z,3.20
2019-03-05T04:23:32.263Z,3.20
2019-03-05T04:26:02.474Z,3.20
2019-03-05T04:28:39.870Z,3.30
2019-03-05T04:31:10.893Z,3.30
2019-03-05T04:33:41.106Z,3.30
2019-03-05T04:36:12.251Z,3.30
2019-03-05T04:38:42.341Z,3.20
2019-03-05T04:41:14.682Z,3.10
2019-03-05T04:43:44.567Z,3.00
2019-03-05T04:46:34.486Z,2.90
2019-03-05T04:49:22.561Z,2.80
2019-03-05T04:51:56.945Z,2.70
2019-03-05T04:54:28.588Z,2.70
2019-03-05T04:56:58.962Z,2.60
2019-03-05T04:59:29.146Z,2.60
2019-03-05T05:01:59.415Z,2.70
2019-03-05T05:04:31.184Z,2.80
2019-03-05T05:07:02.744Z,2.80
2019-03-05T05:10:43.244Z,2.80
2019-03-05T05:13:35.701Z,2.90
2019-03-05T05:15:52.384Z,3.10
2019-03-05T05:18:45.255Z,3.20
2019-03-05T05:21:25.204Z,3.30
2019-03-05T05:24:11.696Z,3.30
2019-03-05T05:26:42.424Z,3.30
2019-03-05T05:29:12.921Z,3.40
2019-03-05T05:31:43.251Z,3.40
2019-03-05T05:34:13.595Z,3.40
2019-03-05T05:36:43.908Z,3.40
2019-03-05T05:39:49.836Z,3.40
2019-03-05T05:42:20.281Z,3.40
2019-03-05T05:44:50.241Z,3.40
2019-03-05T05:47:20.210Z,3.40
2019-03-05T05:49:51.777Z,3.50
2019-03-05T05:52:21.983Z,3.60
2019-03-05T05:54:52.100Z,3.70
2019-03-05T05:57:22.129Z,3.70
2019-03-05T05:59:52.497Z,3.80
2019-03-05T06:02:22.475Z,3.80
2019-03-05T06:04:52.515Z,3.90
2019-03-05T06:07:22.649Z,4.00
2019-03-05T06:09:52.542Z,4.00
2019-03-05T06:12:23.405Z,4.10
2019-03-05T06:14:53.686Z,4.10
2019-03-05T06:17:24.785Z,4.10
2019-03-05T06:19:54.836Z,4.10
2019-03-05T06:22:25.247Z,4.10
2019-03-05T06:24:55.385Z,4.10
2019-03-05T06:27:25.784Z,4.20
2019-03-05T06:29:55.934Z,4.20
2019-03-05T06:32:29.383Z,4.30
2019-03-05T06:34:59.621Z,4.30
2019-03-05T06:37:29.822Z,4.40
2019-03-05T06:39:59.901Z,4.40
2019-03-05T06:42:30.231Z,4.40
2019-03-05T06:45:00.339Z,4.50
2019-03-05T06:47:30.294Z,4.60
2019-03-05T06:50:00.347Z,4.60
2019-03-05T06:52:30.459Z,4.70
2019-03-05T06:55:00.605Z,4.80
2019-03-05T06:57:30.732Z,4.80
2019-03-05T07:00:01.292Z,4.90
2019-03-05T07:02:31.383Z,4.90
2019-03-05T07:05:01.650Z,5.10
2019-03-05T07:07:32.309Z,5.20
2019-03-05T07:10:37.299Z,5.40
2019-03-05T07:13:13.376Z,5.60
2019-03-05T07:16:05.653Z,5.70
2019-03-05T07:18:59.549Z,5.90
2019-03-05T07:22:13.318Z,6.00
2019-03-05T07:24:46.081Z,6.10
2019-03-05T07:27:27.934Z,6.30
2019-03-05T07:30:23.815Z,6.70
2019-03-05T07:32:54.904Z,6.90
2019-03-05T07:35:26.821Z,7.10
2019-03-05T07:37:56.835Z,7.20
2019-03-05T07:40:28.705Z,7.20
2019-03-05T07:42:59.271Z,7.20
2019-03-05T07:45:29.396Z,7.20
2019-03-05T07:48:00.021Z,7.30
2019-03-05T07:50:30.113Z,7.40
2019-03-05T07:53:00.891Z,7.40
2019-03-05T07:55:31.624Z,7.40
2019-03-05T07:58:01.791Z,7.30
2019-03-05T08:00:32.726Z,7.20
2019-03-05T08:03:02.897Z,7.00
2019-03-05T08:05:33.186Z,6.80
2019-03-05T08:08:52.312Z,6.60
2019-03-05T08:11:22.458Z,6.50
2019-03-05T08:14:46.025Z,6.50
2019-03-05T08:17:16.962Z,6.40
2019-03-05T08:19:46.988Z,6.30
2019-03-05T08:22:17.120Z,6.20
2019-03-05T08:24:47.254Z,6.10
2019-03-05T08:27:17.407Z,6.10
2019-03-05T08:29:47.487Z,6.00
2019-03-05T08:32:17.864Z,6.10
2019-03-05T08:34:48.307Z,6.00
2019-03-05T08:37:19.240Z,6.00
2019-03-05T08:39:50.085Z,6.10
2019-03-05T08:42:20.281Z,6.10
2019-03-05T08:44:50.955Z,6.10
2019-03-05T08:47:21.463Z,6.00
2019-03-05T08:49:51.484Z,6.10
2019-03-05T08:52:21.665Z,6.00
2019-03-05T08:54:52.079Z,6.00
2019-03-05T08:57:22.103Z,6.00
2019-03-05T08:59:52.961Z,5.90
2019-03-05T09:02:23.031Z,5.90
2019-03-05T09:04:52.993Z,5.90
2019-03-05T09:07:23.185Z,5.80
2019-03-05T09:09:53.511Z,5.80
2019-03-05T09:12:23.594Z,5.80
2019-03-05T09:14:53.643Z,5.90
2019-03-05T09:17:24.129Z,6.00
2019-03-05T09:19:54.674Z,6.10
2019-03-05T09:22:25.138Z,6.20
2019-03-05T09:24:55.219Z,6.40
2019-03-05T09:27:25.415Z,6.50
2019-03-05T09:29:55.525Z,6.70
2019-03-05T09:32:25.825Z,6.90
2019-03-05T09:34:55.767Z,6.90
2019-03-05T09:37:25.720Z,6.90
2019-03-05T09:39:55.784Z,6.80
2019-03-05T09:42:25.931Z,6.70
2019-03-05T09:44:55.884Z,6.50
2019-03-05T09:47:25.895Z,6.40
2019-03-05T09:49:56.298Z,6.20
2019-03-05T09:52:26.818Z,6.20
2019-03-05T09:54:57.018Z,6.10
2019-03-05T09:57:28.705Z,6.10
2019-03-05T09:59:58.837Z,6.10
2019-03-05T10:02:29.027Z,6.10
2019-03-05T10:04:59.072Z,6.10
2019-03-05T10:07:29.300Z,6.20
2019-03-05T10:09:59.347Z,6.20
2019-03-05T10:12:30.240Z,6.40
2019-03-05T10:15:00.770Z,6.40
2019-03-05T10:17:37.915Z,6.60
2019-03-05T10:20:03.252Z,6.70
2019-03-05T10:22:36.499Z,6.70
2019-03-05T10:25:07.051Z,6.80
2019-03-05T10:27:37.179Z,6.80
2019-03-05T10:30:24.834Z,6.90
2019-03-05T10:32:50.810Z,7.00
2019-03-05T10:35:24.151Z,7.30
2019-03-05T10:37:55.627Z,7.50
2019-03-05T10:40:28.758Z,7.60
2019-03-05T10:43:07.966Z,7.60
2019-03-05T10:45:31.774Z,7.70
2019-03-05T10:48:02.529Z,7.90
2019-03-05T10:50:33.279Z,8.10
2019-03-05T10:53:03.301Z,8.30
2019-03-05T10:55:34.694Z,8.50
2019-03-05T10:58:05.315Z,8.50
2019-03-05T11:00:37.142Z,8.50
2019-03-05T11:03:07.331Z,8.50
2019-03-05T11:05:39.806Z,8.60
2019-03-05T11:08:12.764Z,8.60
2019-03-05T11:10:43.158Z,8.80
2019-03-05T11:13:13.402Z,8.90
2019-03-05T11:15:43.663Z,8.90
2019-03-05T11:18:14.136Z,9.00
2019-03-05T11:20:44.661Z,9.00
2019-03-05T11:23:14.962Z,9.10
2019-03-05T11:25:45.461Z,9.40
2019-03-05T11:28:15.573Z,9.70
2019-03-05T11:30:45.825Z,10.00
2019-03-05T11:33:15.935Z,10.20
2019-03-05T11:35:46.165Z,10.20
2019-03-05T11:38:16.807Z,10.20
2019-03-05T11:40:46.982Z,10.30
2019-03-05T11:43:17.873Z,10.50
2019-03-05T11:45:47.979Z,10.60
2019-03-05T11:48:18.229Z,10.70
2019-03-05T11:50:48.397Z,10.70
2019-03-05T11:53:18.693Z,10.80
2019-03-05T11:55:48.942Z,10.70
2019-03-05T11:58:23.168Z,10.70
2019-03-05T12:01:21.131Z,10.80
2019-03-05T12:03:51.303Z,11.00
2019-03-05T12:06:21.413Z,11.00
2019-03-05T12:08:51.841Z,11.30
2019-03-05T12:11:22.173Z,12.30
2019-03-05T12:13:52.302Z,13.20
2019-03-05T12:16:22.460Z,13.60
2019-03-05T12:18:52.742Z,13.80
2019-03-05T12:21:22.968Z,13.80
2019-03-05T12:23:53.056Z,14.00
2019-03-05T12:26:23.005Z,14.40
2019-03-05T12:28:53.268Z,14.90
2019-03-05T12:31:23.411Z,15.20
2019-03-05T12:33:53.633Z,15.00
2019-03-05T12:36:24.211Z,14.90
2019-03-05T12:38:54.385Z,14.70
2019-03-05T12:41:27.623Z,14.70
2019-03-05T12:43:57.649Z,14.90
2019-03-05T12:46:27.853Z,14.90
2019-03-05T12:48:57.965Z,15.00
2019-03-05T12:51:28.341Z,14.90
2019-03-05T12:53:58.878Z,14.90
2019-03-05T12:56:29.007Z,14.80
2019-03-05T12:58:59.133Z,15.00
2019-03-05T13:01:29.059Z,14.60
2019-03-05T13:03:59.146Z,14.30
2019-03-05T13:06:29.556Z,14.20
2019-03-05T13:08:59.567Z,14.70
2019-03-05T13:11:31.179Z,15.20
2019-03-05T13:14:06.104Z,15.10
2019-03-05T13:16:35.277Z,14.90
2019-03-05T13:19:09.572Z,14.60
2019-03-05T13:21:38.239Z,14.30
2019-03-05T13:24:09.964Z,13.90
2019-03-05T13:26:41.012Z,13.30
2019-03-05T13:29:14.434Z,12.50
2019-03-05T13:31:44.604Z,12.00
2019-03-05T13:34:17.744Z,11.70
2019-03-05T13:36:46.908Z,11.50
2019-03-05T13:39:23.869Z,11.30
2019-03-05T13:41:54.980Z,11.00
2019-03-05T13:44:35.422Z,10.70
2019-03-05T13:47:09.455Z,10.40
2019-03-05T13:50:00.008Z,10.00
2019-03-05T13:53:02.093Z,9.60
2019-03-05T13:56:32.821Z,9.20
2019-03-05T13:59:36.866Z,8.80
2019-03-05T14:03:10.945Z,8.40
2019-03-05T14:05:59.588Z,8.30
2019-03-05T14:09:09.650Z,8.50
2019-03-05T14:11:39.986Z,8.80
2019-03-05T14:14:14.347Z,9.10
2019-03-05T14:16:44.565Z,9.40
2019-03-05T14:19:14.705Z,9.50
2019-03-05T14:21:45.010Z,9.50
2019-03-05T14:24:16.034Z,9.40
2019-03-05T14:26:46.449Z,9.20
2019-03-05T14:29:17.138Z,9.00
2019-03-05T14:31:47.193Z,9.00
2019-03-05T14:34:17.249Z,9.10
2019-03-05T14:36:47.472Z,9.30
2019-03-05T14:39:24.361Z,9.40
2019-03-05T14:41:55.073Z,9.40
2019-03-05T14:44:25.732Z,9.40
2019-03-05T14:46:57.966Z,9.20
2019-03-05T14:49:28.351Z,9.20
2019-03-05T14:51:59.066Z,9.30
2019-03-05T14:54:33.167Z,9.40
2019-03-05T14:57:03.277Z,9.60
2019-03-05T14:59:33.590Z,9.70
2019-03-05T15:02:03.929Z,9.70
2019-03-05T15:04:34.126Z,9.50
2019-03-05T15:07:04.780Z,9.40
2019-03-05T15:09:35.411Z,9.40
2019-03-05T15:12:05.659Z,9.60
2019-03-05T15:14:35.859Z,9.90
2019-03-05T15:17:06.259Z,10.10
2019-03-05T15:19:36.334Z,10.10
2019-03-05T15:22:06.537Z,10.20
2019-03-05T15:24:37.654Z,10.20
2019-03-05T15:27:07.831Z,9.90
2019-03-05T15:29:37.893Z,9.70
2019-03-05T15:32:08.311Z,9.40
2019-03-05T15:34:41.229Z,9.10
2019-03-05T15:37:11.259Z,8.60
2019-03-05T15:39:41.663Z,8.00
2019-03-05T15:42:12.958Z,7.60
2019-03-05T15:44:43.279Z,7.40
2019-03-05T15:47:13.410Z,7.30
2019-03-05T15:49:43.542Z,7.30
2019-03-05T15:52:13.790Z,7.20
2019-03-05T15:54:44.417Z,7.10
2019-03-05T15:57:25.910Z,7.00
2019-03-05T15:59:49.899Z,7.00
2019-03-05T16:02:20.075Z,6.90
2019-03-05T16:04:50.821Z,6.90
2019-03-05T16:07:21.265Z,6.80
2019-03-05T16:09:51.370Z,6.80
2019-03-05T16:12:46.401Z,6.70
2019-03-05T16:15:25.545Z,6.70
2019-03-05T16:18:01.403Z,6.60
2019-03-05T16:20:29.806Z,6.60
2019-03-05T16:23:01.536Z,6.50
2019-03-05T16:25:32.679Z,6.40
2019-03-05T16:28:06.330Z,6.50
2019-03-05T16:31:12.620Z,6.40
2019-03-05T16:33:59.016Z,6.30
2019-03-05T16:36:57.459Z,6.20
2019-03-05T16:39:38.863Z,6.10
2019-03-05T16:42:20.166Z,6.00
2019-03-05T16:45:21.387Z,6.00
2019-03-05T16:48:09.479Z,6.00
2019-03-05T16:51:01.883Z,5.90
2019-03-05T16:53:54.223Z,5.80
2019-03-05T16:56:42.361Z,5.70
2019-03-05T16:59:30.758Z,5.50
2019-03-05T17:02:37.155Z,5.40
2019-03-05T17:05:30.526Z,5.30
2019-03-05T17:08:33.729Z,5.20
2019-03-05T17:11:35.421Z,5.10
2019-03-05T17:14:06.258Z,5.00
2019-03-05T17:16:36.389Z,5.00
2019-03-05T17:19:09.872Z,4.90
2019-03-05T17:21:40.048Z,4.80
2019-03-05T17:24:10.501Z,4.70
2019-03-05T17:26:41.972Z,4.60
2019-03-05T17:29:15.301Z,4.50
2019-03-05T17:31:49.364Z,4.50
2019-03-05T17:34:19.734Z,4.40
2019-03-05T17:36:52.941Z,4.40
2019-03-05T17:39:25.687Z,4.40
2019-03-05T17:41:55.801Z,4.40
2019-03-05T17:44:26.106Z,4.40
2019-03-05T17:46:56.478Z,4.50
2019-03-05T17:49:27.920Z,4.50
2019-03-05T17:51:59.425Z,4.50
2019-03-05T17:54:29.732Z,4.40
2019-03-05T17:56:59.984Z,4.30
2019-03-05T17:59:32.632Z,4.20
2019-03-05T18:02:02.831Z,4.20
2019-03-05T18:04:32.960Z,4.10
2019-03-05T18:07:03.443Z,4.10
2019-03-05T18:09:34.258Z,4.00
2019-03-05T18:12:04.423Z,4.00
2019-03-05T18:14:34.641Z,4.00
2019-03-05T18:17:04.861Z,4.00
2019-03-05T18:19:35.559Z,3.90
2019-03-05T18:22:05.753Z,3.90
2019-03-05T18:24:38.936Z,3.80
2019-03-05T18:27:10.440Z,3.80
2019-03-05T18:29:43.218Z,3.80
2019-03-05T18:32:13.727Z,3.80
2019-03-05T18:34:52.411Z,3.70
2019-03-05T18:37:26.011Z,3.70
2019-03-05T18:39:56.499Z,3.70
2019-03-05T18:42:29.602Z,3.70
2019-03-05T18:44:59.870Z,3.70
2019-03-05T18:47:40.080Z,3.80
2019-03-05T18:50:12.889Z,3.90
2019-03-05T18:52:59.892Z,4.00
2019-03-05T18:55:29.931Z,4.00
2019-03-05T18:58:00.290Z,4.00
2019-03-05T19:00:30.981Z,3.90
2019-03-05T19:03:04.578Z,3.90
2019-03-05T19:05:34.647Z,3.80
2019-03-05T19:08:05.679Z,3.80
2019-03-05T19:10:36.098Z,3.70
2019-03-05T19:13:06.332Z,3.70
2019-03-05T19:15:36.611Z,3.60
2019-03-05T19:18:07.460Z,3.50
2019-03-05T19:20:40.623Z,3.50
2019-03-05T19:23:14.201Z,3.40
2019-03-05T19:25:44.687Z,3.40
2019-03-05T19:28:15.479Z,3.40
2019-03-05T19:30:46.151Z,3.40
2019-03-05T19:33:16.452Z,3.40
2019-03-05T19:35:46.955Z,3.40
2019-03-05T19:38:17.028Z,3.40
2019-03-05T19:40:47.121Z,3.30
2019-03-05T19:43:17.393Z,3.30
2019-03-05T19:45:48.805Z,3.20
2019-03-05T19:48:19.078Z,3.10
2019-03-05T19:50:49.332Z,3.10
2019-03-05T19:53:19.675Z,3.00
2019-03-05T19:55:51.399Z,2.90
2019-03-05T19:58:21.821Z,2.80
2019-03-05T20:01:10.293Z,2.80
2019-03-05T20:03:40.674Z,2.70
2019-03-05T20:06:11.643Z,2.70
2019-03-05T20:08:41.904Z,2.70
2019-03-05T20:11:14.065Z,2.70
2019-03-05T20:13:46.638Z,2.60
2019-03-05T20:16:19.082Z,2.50
2019-03-05T20:18:50.095Z,2.50
2019-03-05T20:21:20.428Z,2.50
2019-03-05T20:23:53.088Z,2.40
2019-03-05T20:26:23.679Z,2.40
2019-03-05T20:28:54.700Z,2.40
2019-03-05T20:31:26.552Z,2.40
2019-03-05T20:33:57.102Z,2.50
2019-03-05T20:36:27.585Z,2.50
2019-03-05T20:38:57.930Z,2.50
2019-03-05T20:41:28.498Z,2.50
2019-03-05T20:43:58.944Z,2.50
2019-03-05T20:46:29.793Z,2.50
2019-03-05T20:48:59.922Z,2.50
2019-03-05T20:51:30.097Z,2.50
2019-03-05T20:54:00.281Z,2.40
2019-03-05T20:56:30.461Z,2.40
2019-03-05T20:59:00.588Z,2.40
2019-03-05T21:01:30.878Z,2.40
2019-03-05T21:04:01.086Z,2.40
2019-03-05T21:06:31.281Z,2.50
2019-03-05T21:09:01.345Z,2.50
2019-03-05T21:11:31.588Z,2.50
2019-03-05T21:14:01.807Z,2.50
2019-03-05T21:16:32.564Z,2.50
2019-03-05T21:19:02.771Z,2.40
2019-03-05T21:21:33.255Z,2.40
2019-03-05T21:24:03.570Z,2.40
2019-03-05T21:26:36.950Z,2.40
2019-03-05T21:29:07.181Z,2.40
2019-03-05T21:31:37.413Z,2.50
2019-03-05T21:34:07.876Z,2.50
2019-03-05T21:36:38.344Z,2.50
2019-03-05T21:39:14.507Z,2.40
2019-03-05T21:41:44.976Z,2.40
2019-03-05T21:44:15.471Z,2.30
2019-03-05T21:46:45.796Z,2.30
2019-03-05T21:49:16.815Z,2.30
2019-03-05T21:51:47.114Z,2.30
2019-03-05T21:54:17.226Z,2.20
2019-03-05T21:56:47.688Z,2.20
2019-03-05T21:59:18.392Z,2.20
2019-03-05T22:01:48.781Z,2.30
2019-03-05T22:04:18.872Z,2.20
2019-03-05T22:06:49.307Z,2.10
2019-03-05T22:09:19.537Z,2.00
2019-03-05T22:11:50.116Z,2.00
2019-03-05T22:14:20.741Z,1.90
2019-03-05T22:16:50.697Z,1.90
2019-03-05T22:19:20.841Z,1.80
2019-03-05T22:21:51.286Z,1.70
2019-03-05T22:24:21.515Z,1.70
2019-03-05T22:26:51.920Z,1.60
2019-03-05T22:29:21.941Z,1.50
2019-03-05T22:31:52.479Z,1.50
2019-03-05T22:34:22.474Z,1.60
2019-03-05T22:36:52.405Z,1.60
2019-03-05T22:39:22.539Z,1.60
2019-03-05T22:41:52.912Z,1.60
2019-03-05T22:44:22.963Z,1.70
2019-03-05T22:46:53.259Z,1.80
2019-03-05T22:49:23.469Z,1.80
2019-03-05T22:51:53.761Z,1.80
2019-03-05T22:54:23.667Z,1.80
2019-03-05T22:56:55.361Z,1.70
2019-03-05T22:59:25.598Z,1.70
2019-03-05T23:01:55.583Z,1.70
2019-03-05T23:04:34.488Z,1.60
2019-03-05T23:07:05.514Z,1.60
2019-03-05T23:09:35.649Z,1.60
2019-03-05T23:12:05.886Z,1.60
2019-03-05T23:14:36.278Z,1.70
2019-03-05T23:17:07.162Z,1.70
2019-03-05T23:19:37.304Z,1.70
2019-03-05T23:22:07.866Z,1.70
2019-03-05T23:24:39.984Z,1.70
2019-03-05T23:27:10.216Z,1.70
2019-03-05T23:29:45.383Z,1.80
2019-03-05T23:32:17.924Z,1.80
2019-03-05T23:34:48.211Z,1.90
2019-03-05T23:37:18.662Z,2.00
2019-03-05T23:39:48.582Z,2.10
2019-03-05T23:42:19.013Z,2.20
2019-03-05T23:44:49.756Z,2.20
2019-03-05T23:47:20.038Z,2.30
2019-03-05T23:49:51.025Z,2.40
2019-03-05T23:52:21.162Z,2.40
2019-03-05T23:54:51.261Z,2.50
2019-03-05T23:57:21.948Z,2.60
2019-03-05T23:59:52.153Z,2.60
